createdAt,value
2019-05-30T00:01:29.148Z,2.80
2019-05-30T00:03:58.864Z,2.70
2019-05-30T00:06:28.623Z,2.83
2019-05-30T00:08:58.434Z,3.03
2019-05-30T00:11:27.575Z,3.23
2019-05-30T00:13:56.781Z,3.17
2019-05-30T00:16:25.927Z,3.10
2019-05-30T00:18:55.133Z,3.47
2019-05-30T00:21:24.289Z,3.60
2019-05-30T00:23:53.460Z,3.27
2019-05-30T00:26:22.632Z,3.97
2019-05-30T00:28:51.826Z,3.90
2019-05-30T00:31:21.014Z,4.10
2019-05-30T00:33:50.172Z,4.20
2019-05-30T00:36:19.348Z,4.67
2019-05-30T00:38:48.514Z,4.83
2019-05-30T00:41:17.720Z,6.60
2019-05-30T00:43:46.900Z,6.40
2019-05-30T00:46:16.062Z,6.70
2019-05-30T00:48:45.315Z,7.00
2019-05-30T00:51:14.500Z,6.70
2019-05-30T00:53:43.693Z,8.60
2019-05-30T00:56:12.894Z,8.17
2019-05-30T00:58:42.081Z,9.00
2019-05-30T01:01:12.959Z,8.63
2019-05-30T01:03:42.194Z,7.63
2019-05-30T01:06:11.394Z,8.13
2019-05-30T01:08:40.581Z,9.07
2019-05-30T01:11:09.750Z,9.03
2019-05-30T01:13:38.930Z,8.90
2019-05-30T01:16:08.102Z,8.50
2019-05-30T01:18:37.280Z,9.60
2019-05-30T01:21:07.407Z,10.93
2019-05-30T01:23:38.415Z,10.57
2019-05-30T01:26:08.385Z,11.17
2019-05-30T01:28:37.561Z,12.10
2019-05-30T01:31:10.184Z,11.77
2019-05-30T01:33:37.713Z,11.30
2019-05-30T01:36:07.906Z,11.83
2019-05-30T01:38:37.192Z,11.03
2019-05-30T01:41:06.451Z,12.60
2019-05-30T01:43:35.657Z,13.27
2019-05-30T01:46:06.124Z,12.20
2019-05-30T01:48:35.401Z,12.90
2019-05-30T01:51:04.664Z,13.57
2019-05-30T01:53:33.857Z,13.47
2019-05-30T01:56:03.203Z,14.40
2019-05-30T01:58:32.383Z,12.87
2019-05-30T02:01:17.067Z,14.07
2019-05-30T02:03:32.460Z,13.63
2019-05-30T02:06:03.292Z,14.17
2019-05-30T02:08:32.687Z,14.73
2019-05-30T02:11:01.906Z,13.90
2019-05-30T02:13:32.166Z,13.77
2019-05-30T02:16:01.615Z,13.50
2019-05-30T02:18:30.894Z,12.93
2019-05-30T02:21:00.076Z,14.67
2019-05-30T02:23:29.341Z,13.60
2019-05-30T02:25:59.958Z,13.93
2019-05-30T02:28:29.314Z,13.37
2019-05-30T02:30:58.537Z,13.47
2019-05-30T02:33:27.725Z,12.47
2019-05-30T02:36:15.280Z,12.87
2019-05-30T02:38:44.462Z,12.63
2019-05-30T02:41:13.656Z,12.60
2019-05-30T02:43:42.916Z,12.33
2019-05-30T02:46:12.543Z,11.97
2019-05-30T02:48:58.456Z,13.43
2019-05-30T02:51:13.442Z,12.87
2019-05-30T02:53:55.062Z,12.63
2019-05-30T02:56:24.290Z,12.00
2019-05-30T02:58:53.477Z,12.40
2019-05-30T03:01:22.657Z,12.50
2019-05-30T03:03:51.859Z,12.20
2019-05-30T03:06:21.216Z,12.67
2019-05-30T03:09:10.961Z,11.17
2019-05-30T03:11:39.596Z,12.30
2019-05-30T03:14:12.188Z,11.47
2019-05-30T03:16:39.761Z,12.10
2019-05-30T03:19:10.932Z,10.80
2019-05-30T03:21:39.896Z,11.33
2019-05-30T03:24:11.295Z,10.97
2019-05-30T03:26:40.057Z,10.50
2019-05-30T03:29:10.079Z,10.27
2019-05-30T03:31:41.323Z,10.93
2019-05-30T03:34:22.094Z,11.30
2019-05-30T03:36:41.449Z,11.53
2019-05-30T03:39:12.521Z,11.80
2019-05-30T03:41:41.868Z,11.87
2019-05-30T03:44:13.573Z,13.20
2019-05-30T03:46:47.814Z,12.63
2019-05-30T03:49:20.054Z,12.80
2019-05-30T03:51:50.769Z,13.20
2019-05-30T03:54:20.975Z,14.20
2019-05-30T03:57:04.785Z,14.47
2019-05-30T03:59:38.659Z,15.10
2019-05-30T04:02:15.720Z,14.70
2019-05-30T04:05:13.601Z,15.73
2019-05-30T04:07:45.552Z,14.87
2019-05-30T04:10:16.787Z,17.13
2019-05-30T04:12:54.915Z,16.80
2019-05-30T04:15:34.693Z,17.30
2019-05-30T04:18:03.955Z,18.30
2019-05-30T04:20:33.376Z,17.30
2019-05-30T04:23:02.548Z,19.07
2019-05-30T04:25:31.683Z,19.47
2019-05-30T04:28:00.885Z,19.07
2019-05-30T04:30:30.077Z,19.77
2019-05-30T04:33:16.172Z,20.37
2019-05-30T04:35:30.206Z,18.33
2019-05-30T04:37:59.395Z,19.80
2019-05-30T04:40:28.544Z,19.40
2019-05-30T04:42:57.741Z,20.00
2019-05-30T04:45:28.165Z,18.77
2019-05-30T04:47:57.789Z,18.47
2019-05-30T04:50:26.969Z,19.57
2019-05-30T04:52:56.189Z,18.03
2019-05-30T04:55:25.365Z,18.23
2019-05-30T04:57:54.571Z,17.70
2019-05-30T05:00:23.927Z,17.70
2019-05-30T05:02:53.110Z,19.37
2019-05-30T05:05:26.535Z,18.63
2019-05-30T05:07:53.178Z,19.50
2019-05-30T05:10:22.656Z,18.37
2019-05-30T05:12:51.882Z,18.20
2019-05-30T05:15:22.659Z,18.00
2019-05-30T05:17:51.983Z,18.73
2019-05-30T05:20:21.518Z,17.63
2019-05-30T05:22:50.864Z,18.33
2019-05-30T05:25:20.085Z,17.90
2019-05-30T05:27:56.300Z,17.17
2019-05-30T05:30:25.496Z,18.43
2019-05-30T05:32:54.693Z,16.47
2019-05-30T05:35:24.991Z,17.83
2019-05-30T05:37:54.252Z,18.43
2019-05-30T05:40:24.403Z,17.93
2019-05-30T05:42:53.760Z,17.73
2019-05-30T05:45:23.102Z,16.57
2019-05-30T05:47:52.320Z,18.83
2019-05-30T05:50:22.537Z,18.20
2019-05-30T05:52:51.902Z,17.90
2019-05-30T05:55:21.076Z,17.30
2019-05-30T05:57:50.262Z,17.43
2019-05-30T06:00:21.140Z,17.97
2019-05-30T06:02:50.535Z,18.67
2019-05-30T06:05:20.178Z,17.00
2019-05-30T06:07:49.513Z,18.60
2019-05-30T06:10:19.534Z,18.10
2019-05-30T06:12:48.863Z,16.97
2019-05-30T06:15:18.787Z,18.67
2019-05-30T06:17:48.212Z,17.50
2019-05-30T06:20:19.208Z,17.70
2019-05-30T06:22:48.410Z,17.07
2019-05-30T06:25:18.947Z,17.77
2019-05-30T06:27:48.625Z,18.40
2019-05-30T06:30:20.324Z,16.90
2019-05-30T06:32:49.673Z,17.80
2019-05-30T06:35:18.939Z,17.67
2019-05-30T06:38:06.211Z,16.60
2019-05-30T06:40:36.330Z,16.33
2019-05-30T06:43:05.516Z,16.73
2019-05-30T06:45:34.699Z,17.97
2019-05-30T06:48:03.958Z,16.80
2019-05-30T06:50:33.518Z,15.53
2019-05-30T06:53:02.739Z,14.83
2019-05-30T06:55:31.934Z,14.57
2019-05-30T06:58:01.123Z,13.97
2019-05-30T07:00:32.854Z,14.13
2019-05-30T07:03:01.666Z,14.03
2019-05-30T07:05:33.666Z,11.93
2019-05-30T07:08:01.756Z,11.63
2019-05-30T07:10:31.183Z,12.87
2019-05-30T07:13:00.379Z,11.63
2019-05-30T07:15:29.577Z,12.03
2019-05-30T07:17:58.796Z,11.00
2019-05-30T07:20:28.042Z,11.47
2019-05-30T07:22:57.231Z,10.67
2019-05-30T07:25:27.772Z,11.67
2019-05-30T07:27:57.162Z,10.07
2019-05-30T07:30:27.931Z,11.17
2019-05-30T07:32:57.114Z,11.53
2019-05-30T07:35:26.299Z,10.47
2019-05-30T07:37:55.500Z,10.10
2019-05-30T07:40:24.901Z,10.47
2019-05-30T07:42:54.101Z,9.70
2019-05-30T07:45:24.769Z,10.70
2019-05-30T07:47:59.100Z,9.90
2019-05-30T07:50:28.464Z,10.03
2019-05-30T07:52:57.968Z,9.77
2019-05-30T07:55:27.241Z,10.00
2019-05-30T07:57:56.544Z,9.93
2019-05-30T08:00:27.403Z,10.50
2019-05-30T08:02:57.690Z,10.27
2019-05-30T08:05:26.940Z,9.87
2019-05-30T08:07:56.140Z,10.20
2019-05-30T08:10:25.387Z,10.00
2019-05-30T08:12:54.578Z,9.73
2019-05-30T08:15:24.017Z,10.30
2019-05-30T08:17:53.553Z,9.43
2019-05-30T08:20:23.229Z,10.60
2019-05-30T08:22:52.425Z,11.10
2019-05-30T08:25:21.613Z,10.30
2019-05-30T08:27:50.803Z,8.57
2019-05-30T08:30:20.432Z,8.53
2019-05-30T08:32:49.646Z,9.57
2019-05-30T08:35:18.970Z,10.73
2019-05-30T08:37:48.170Z,10.17
2019-05-30T08:40:17.347Z,10.13
2019-05-30T08:42:46.542Z,9.90
2019-05-30T08:45:17.059Z,10.40
2019-05-30T08:47:46.258Z,11.17
2019-05-30T08:50:16.187Z,10.53
2019-05-30T08:52:45.387Z,9.93
2019-05-30T08:55:14.721Z,11.20
2019-05-30T08:57:43.909Z,10.67
2019-05-30T09:00:14.940Z,9.87
2019-05-30T09:02:45.233Z,9.83
2019-05-30T09:05:14.503Z,9.50
2019-05-30T09:07:44.629Z,9.13
2019-05-30T09:10:14.462Z,9.17
2019-05-30T09:12:48.743Z,9.03
2019-05-30T09:15:15.585Z,8.30
2019-05-30T09:17:46.712Z,7.63
2019-05-30T09:20:16.746Z,8.10
2019-05-30T09:22:45.941Z,8.90
2019-05-30T09:25:16.905Z,8.87
2019-05-30T09:27:46.663Z,9.23
2019-05-30T09:30:18.086Z,8.17
2019-05-30T09:32:47.270Z,8.70
2019-05-30T09:35:17.284Z,8.33
2019-05-30T09:37:47.795Z,8.87
2019-05-30T09:40:17.792Z,9.33
2019-05-30T09:42:48.679Z,7.27
2019-05-30T09:45:19.329Z,8.63
2019-05-30T09:47:49.285Z,7.97
2019-05-30T09:50:19.414Z,7.43
2019-05-30T09:52:49.412Z,9.57
2019-05-30T09:55:19.507Z,6.93
2019-05-30T09:57:49.623Z,7.27
2019-05-30T10:00:21.578Z,7.00
2019-05-30T10:02:50.761Z,7.30
2019-05-30T10:05:24.200Z,9.10
2019-05-30T10:07:53.001Z,8.57
2019-05-30T10:10:22.594Z,8.90
2019-05-30T10:12:52.664Z,9.13
2019-05-30T10:15:22.485Z,9.27
2019-05-30T10:17:52.950Z,9.43
2019-05-30T10:20:24.051Z,9.23
2019-05-30T10:22:53.928Z,9.50
2019-05-30T10:25:23.545Z,10.07
2019-05-30T10:27:54.649Z,8.10
2019-05-30T10:30:25.756Z,9.67
2019-05-30T10:32:55.941Z,9.37
2019-05-30T10:35:25.253Z,10.40
2019-05-30T10:37:54.423Z,9.70
2019-05-30T10:40:25.418Z,10.43
2019-05-30T10:42:55.105Z,8.23
2019-05-30T10:45:25.547Z,9.00
2019-05-30T10:47:54.722Z,8.47
2019-05-30T10:50:23.974Z,8.60
2019-05-30T10:52:53.590Z,8.47
2019-05-30T10:55:23.966Z,7.73
2019-05-30T10:57:57.533Z,7.97
2019-05-30T11:00:30.752Z,7.93
2019-05-30T11:02:59.909Z,8.50
2019-05-30T11:05:29.092Z,7.97
2019-05-30T11:08:10.506Z,8.77
2019-05-30T11:10:41.861Z,9.03
2019-05-30T11:13:14.668Z,8.33
2019-05-30T11:15:44.502Z,10.57
2019-05-30T11:18:14.025Z,11.00
2019-05-30T11:20:43.288Z,9.97
2019-05-30T11:23:12.467Z,11.03
2019-05-30T11:25:41.654Z,11.90
2019-05-30T11:28:10.833Z,12.23
2019-05-30T11:30:40.026Z,10.90
2019-05-30T11:33:09.290Z,11.63
2019-05-30T11:35:38.490Z,11.43
2019-05-30T11:38:07.731Z,10.60
2019-05-30T11:40:37.072Z,10.57
2019-05-30T11:43:07.142Z,11.13
2019-05-30T11:45:36.325Z,10.17
2019-05-30T11:48:05.521Z,9.97
2019-05-30T11:50:34.820Z,9.20
2019-05-30T11:53:04.087Z,9.20
2019-05-30T11:55:33.342Z,9.73
2019-05-30T11:58:02.612Z,10.77
2019-05-30T12:00:32.053Z,10.97
2019-05-30T12:03:01.259Z,9.93
2019-05-30T12:05:30.514Z,10.13
2019-05-30T12:08:00.916Z,10.47
2019-05-30T12:10:31.663Z,12.43
2019-05-30T12:13:01.599Z,11.23
2019-05-30T12:15:31.101Z,11.00
2019-05-30T12:18:02.215Z,12.07
2019-05-30T12:20:31.205Z,12.57
2019-05-30T12:23:00.395Z,11.73
2019-05-30T12:25:29.585Z,11.20
2019-05-30T12:27:58.792Z,11.47
2019-05-30T12:30:28.137Z,11.37
2019-05-30T12:32:58.319Z,10.40
2019-05-30T12:35:27.587Z,11.83
2019-05-30T12:38:01.345Z,11.17
2019-05-30T12:40:27.764Z,11.83
2019-05-30T12:42:59.185Z,12.20
2019-05-30T12:45:27.919Z,10.10
2019-05-30T12:47:57.165Z,10.27
2019-05-30T12:50:26.482Z,9.80
2019-05-30T12:52:55.718Z,10.10
2019-05-30T12:55:25.166Z,9.90
2019-05-30T12:57:54.578Z,9.40
2019-05-30T13:00:29.703Z,9.70
2019-05-30T13:02:58.940Z,10.70
2019-05-30T13:05:28.163Z,10.43
2019-05-30T13:08:14.457Z,10.27
2019-05-30T13:10:28.580Z,9.87
2019-05-30T13:12:57.783Z,10.80
2019-05-30T13:15:26.974Z,9.93
2019-05-30T13:17:57.302Z,10.73
2019-05-30T13:20:26.784Z,10.53
2019-05-30T13:22:56.334Z,9.97
2019-05-30T13:25:25.763Z,9.83
2019-05-30T13:27:55.780Z,10.30
2019-05-30T13:30:25.283Z,10.80
2019-05-30T13:32:54.476Z,11.00
2019-05-30T13:35:25.630Z,11.00
2019-05-30T13:37:57.084Z,10.50
2019-05-30T13:40:26.384Z,10.07
2019-05-30T13:42:55.592Z,10.57
2019-05-30T13:45:25.228Z,11.17
2019-05-30T13:47:54.444Z,10.93
2019-05-30T13:50:23.754Z,10.13
2019-05-30T13:52:52.940Z,10.30
2019-05-30T13:55:22.481Z,9.13
2019-05-30T13:57:51.656Z,9.80
2019-05-30T14:00:21.386Z,8.70
2019-05-30T14:02:50.564Z,8.87
2019-05-30T14:05:19.842Z,9.00
2019-05-30T14:07:49.097Z,8.53
2019-05-30T14:10:18.619Z,7.93
2019-05-30T14:12:47.865Z,7.43
2019-05-30T14:15:18.219Z,7.20
2019-05-30T14:17:47.416Z,7.80
2019-05-30T14:20:17.218Z,6.43
2019-05-30T14:22:46.483Z,5.77
2019-05-30T14:25:16.369Z,5.37
2019-05-30T14:27:45.564Z,5.45
2019-05-30T14:30:14.936Z,5.20
2019-05-30T14:32:44.117Z,4.63
2019-05-30T14:35:14.015Z,4.70
2019-05-30T14:37:43.284Z,4.20
2019-05-30T14:40:14.795Z,3.87
2019-05-30T14:42:43.997Z,4.87
2019-05-30T14:45:16.838Z,4.63
2019-05-30T14:47:46.267Z,4.27
2019-05-30T14:50:17.303Z,5.00
2019-05-30T14:52:47.131Z,5.27
2019-05-30T14:55:17.368Z,5.43
2019-05-30T14:57:46.743Z,5.07
2019-05-30T15:00:18.018Z,6.10
2019-05-30T15:02:47.537Z,6.73
2019-05-30T15:05:17.683Z,6.77
2019-05-30T15:07:46.878Z,6.40
2019-05-30T15:10:17.167Z,6.17
2019-05-30T15:12:46.452Z,5.70
2019-05-30T15:15:18.551Z,5.03
2019-05-30T15:17:47.738Z,4.97
2019-05-30T15:20:17.758Z,3.87
2019-05-30T15:22:47.278Z,3.83
2019-05-30T15:25:18.054Z,3.03
2019-05-30T15:27:47.510Z,2.90
2019-05-30T15:30:19.142Z,3.27
2019-05-30T15:32:48.315Z,3.40
2019-05-30T15:35:19.047Z,3.90
2019-05-30T15:37:48.547Z,3.73
2019-05-30T15:40:18.179Z,4.33
2019-05-30T15:42:47.342Z,3.70
2019-05-30T15:45:18.121Z,3.70
2019-05-30T15:47:47.545Z,4.20
2019-05-30T15:50:18.758Z,4.70
2019-05-30T15:52:48.063Z,3.97
2019-05-30T15:55:17.624Z,4.47
2019-05-30T15:57:46.856Z,4.20
2019-05-30T16:00:18.139Z,4.50
2019-05-30T16:02:47.258Z,4.73
2019-05-30T16:05:18.671Z,4.70
2019-05-30T16:07:49.977Z,5.13
2019-05-30T16:10:19.261Z,5.17
2019-05-30T16:12:48.463Z,4.93
2019-05-30T16:15:19.695Z,5.33
2019-05-30T16:17:48.875Z,5.17
2019-05-30T16:20:18.532Z,4.80
2019-05-30T16:22:47.727Z,5.00
2019-05-30T16:25:17.733Z,4.80
2019-05-30T16:27:47.002Z,4.03
2019-05-30T16:30:19.769Z,4.50
2019-05-30T16:32:47.882Z,4.07
2019-05-30T16:35:18.184Z,3.93
2019-05-30T16:37:47.587Z,4.30
2019-05-30T16:40:18.431Z,3.80
2019-05-30T16:42:47.596Z,4.07
2019-05-30T16:45:20.338Z,4.37
2019-05-30T16:47:49.338Z,3.93
2019-05-30T16:50:22.778Z,3.80
2019-05-30T16:52:52.222Z,4.43
2019-05-30T16:55:21.635Z,4.30
2019-05-30T16:57:50.843Z,4.67
2019-05-30T17:00:21.849Z,3.70
2019-05-30T17:02:51.131Z,4.30
2019-05-30T17:05:20.400Z,3.90
2019-05-30T17:07:49.874Z,4.17
2019-05-30T17:10:26.680Z,4.20
2019-05-30T17:12:50.096Z,4.63
2019-05-30T17:15:19.980Z,4.40
2019-05-30T17:17:49.397Z,4.53
2019-05-30T17:20:22.479Z,4.93
2019-05-30T17:22:51.818Z,4.27
2019-05-30T17:25:21.061Z,4.77
2019-05-30T17:27:50.183Z,4.87
2019-05-30T17:30:19.802Z,4.73
2019-05-30T17:32:48.982Z,4.50
2019-05-30T17:35:18.362Z,4.63
2019-05-30T17:37:47.541Z,4.67
2019-05-30T17:40:16.799Z,5.07
2019-05-30T17:42:45.986Z,4.70
2019-05-30T17:45:16.596Z,4.43
2019-05-30T17:47:45.805Z,4.90
2019-05-30T17:50:15.526Z,5.27
2019-05-30T17:52:45.056Z,4.60
2019-05-30T17:55:14.895Z,5.07
2019-05-30T17:57:44.088Z,4.07
2019-05-30T18:00:15.680Z,4.87
2019-05-30T18:02:44.861Z,4.50
2019-05-30T18:05:14.480Z,4.57
2019-05-30T18:07:43.685Z,4.43
2019-05-30T18:10:13.713Z,4.90
2019-05-30T18:12:43.067Z,5.00
2019-05-30T18:15:14.798Z,4.90
2019-05-30T18:17:43.997Z,5.00
2019-05-30T18:20:14.993Z,4.67
2019-05-30T18:22:44.339Z,4.30
2019-05-30T18:25:14.176Z,4.70
2019-05-30T18:27:43.382Z,5.10
2019-05-30T18:30:13.315Z,4.60
2019-05-30T18:32:43.611Z,5.37
2019-05-30T18:35:12.855Z,4.70
2019-05-30T18:37:42.327Z,4.73
2019-05-30T18:40:12.255Z,4.80
2019-05-30T18:42:41.609Z,4.13
2019-05-30T18:45:11.437Z,5.20
2019-05-30T18:47:40.916Z,4.57
2019-05-30T18:50:10.572Z,4.43
2019-05-30T18:52:39.771Z,4.80
2019-05-30T18:55:10.088Z,4.53
2019-05-30T18:57:39.270Z,4.30
2019-05-30T19:00:10.029Z,4.43
2019-05-30T19:02:40.829Z,4.57
2019-05-30T19:05:10.157Z,3.77
2019-05-30T19:07:39.367Z,4.00
2019-05-30T19:10:09.015Z,4.60
2019-05-30T19:12:38.287Z,4.67
2019-05-30T19:15:08.127Z,3.93
2019-05-30T19:17:37.523Z,4.50
2019-05-30T19:20:07.460Z,3.67
2019-05-30T19:22:36.799Z,4.23
2019-05-30T19:25:07.583Z,4.07
2019-05-30T19:27:38.515Z,4.30
2019-05-30T19:30:11.026Z,4.13
2019-05-30T19:32:40.437Z,4.67
2019-05-30T19:35:11.206Z,4.43
2019-05-30T19:37:42.341Z,5.23
2019-05-30T19:40:12.226Z,4.23
2019-05-30T19:42:41.437Z,4.30
2019-05-30T19:45:12.159Z,4.17
2019-05-30T19:47:41.339Z,4.43
2019-05-30T19:50:11.784Z,4.47
2019-05-30T19:52:41.435Z,4.50
2019-05-30T19:55:10.756Z,3.97
2019-05-30T19:57:40.255Z,3.97
2019-05-30T20:00:11.596Z,4.17
2019-05-30T20:02:40.792Z,4.43
2019-05-30T20:05:10.328Z,4.40
2019-05-30T20:07:40.794Z,4.20
2019-05-30T20:10:10.725Z,4.70
2019-05-30T20:12:41.072Z,4.63
2019-05-30T20:15:12.188Z,4.07
2019-05-30T20:17:42.042Z,4.10
2019-05-30T20:20:12.240Z,3.90
2019-05-30T20:22:42.382Z,4.80
2019-05-30T20:25:12.178Z,4.37
2019-05-30T20:27:41.358Z,3.70
2019-05-30T20:30:11.899Z,4.03
2019-05-30T20:32:41.118Z,4.03
2019-05-30T20:35:10.524Z,3.87
2019-05-30T20:37:40.791Z,4.40
2019-05-30T20:40:10.927Z,4.63
2019-05-30T20:42:41.044Z,3.80
2019-05-30T20:45:10.848Z,4.60
2019-05-30T20:47:42.141Z,4.30
2019-05-30T20:50:14.165Z,4.33
2019-05-30T20:52:45.314Z,4.53
2019-05-30T20:55:13.883Z,4.00
2019-05-30T20:57:43.053Z,3.73
2019-05-30T21:00:13.774Z,4.57
2019-05-30T21:02:43.684Z,4.87
2019-05-30T21:05:13.387Z,4.00
2019-05-30T21:07:44.521Z,4.40
2019-05-30T21:10:14.405Z,3.97
2019-05-30T21:12:46.968Z,4.20
2019-05-30T21:15:15.557Z,4.70
2019-05-30T21:17:46.490Z,4.60
2019-05-30T21:20:15.916Z,4.60
2019-05-30T21:22:46.492Z,4.00
2019-05-30T21:25:16.258Z,4.00
2019-05-30T21:27:45.469Z,4.40
2019-05-30T21:30:15.174Z,4.43
2019-05-30T21:32:46.272Z,4.13
2019-05-30T21:35:15.818Z,4.27
2019-05-30T21:37:45.822Z,4.13
2019-05-30T21:40:15.684Z,4.23
2019-05-30T21:43:02.945Z,4.57
2019-05-30T21:45:16.110Z,4.23
2019-05-30T21:47:45.296Z,4.67
2019-05-30T21:50:16.137Z,4.10
2019-05-30T21:52:46.290Z,5.07
2019-05-30T21:55:15.897Z,4.53
2019-05-30T21:57:46.064Z,4.40
2019-05-30T22:00:21.794Z,4.50
2019-05-30T22:02:54.527Z,4.40
2019-05-30T22:05:24.199Z,4.70
2019-05-30T22:07:53.395Z,4.70
2019-05-30T22:10:22.572Z,4.07
2019-05-30T22:12:51.920Z,4.87
2019-05-30T22:15:21.121Z,4.27
2019-05-30T22:17:50.441Z,4.50
2019-05-30T22:20:21.698Z,4.20
2019-05-30T22:22:50.912Z,4.53
2019-05-30T22:25:20.061Z,4.10
2019-05-30T22:27:50.549Z,4.40
2019-05-30T22:30:20.339Z,4.30
2019-05-30T22:32:50.677Z,5.23
2019-05-30T22:35:19.915Z,4.97
2019-05-30T22:37:49.105Z,4.30
2019-05-30T22:40:18.273Z,4.23
2019-05-30T22:42:48.112Z,4.20
2019-05-30T22:45:17.563Z,3.90
2019-05-30T22:47:46.737Z,4.83
2019-05-30T22:50:15.923Z,4.10
2019-05-30T22:52:45.106Z,4.40
2019-05-30T22:55:14.298Z,4.57
2019-05-30T22:57:44.348Z,5.30
2019-05-30T23:00:15.053Z,4.77
2019-05-30T23:03:02.331Z,5.07
2019-05-30T23:05:31.511Z,5.17
2019-05-30T23:08:00.727Z,5.73
2019-05-30T23:10:29.914Z,4.60
2019-05-30T23:12:59.103Z,5.67
2019-05-30T23:15:28.300Z,5.07
2019-05-30T23:17:57.483Z,5.60
2019-05-30T23:20:26.699Z,5.13
2019-05-30T23:22:57.095Z,5.80
2019-05-30T23:25:26.329Z,5.47
2019-05-30T23:27:55.674Z,5.33
2019-05-30T23:30:25.009Z,6.20
2019-05-30T23:32:54.382Z,6.50
2019-05-30T23:35:25.204Z,6.47
2019-05-30T23:37:54.745Z,6.17
2019-05-30T23:40:23.991Z,6.20
2019-05-30T23:42:53.177Z,6.03
2019-05-30T23:45:22.361Z,6.33
2019-05-30T23:47:53.531Z,6.37
2019-05-30T23:50:22.868Z,6.83
2019-05-30T23:52:52.133Z,6.47
2019-05-30T23:55:21.268Z,7.27
2019-05-30T23:57:50.438Z,6.83
